GEC363 LIMC-EDDP
Flight info
| Callsign | GEC363 |
|---|---|
| Flight time | 1h 8m |
| Altitude | 36000 |
| Route | PEPAG DCT ABESI N851 UTAVO DCT ROLSA/N0474F370 DCT LOKTA DCT ETAGO DCT IBAGA T435 PIBAD T954 GOXLI GOXLI1V |
| Aircraft | B77L/H-SDE1E2E3FGHIJ2J3J4J5M1RWXY/LB1D1 |
Departure
| Time | 2026-05-05 12:28 |
|---|---|
| Airport | Milan Malpensa International Airport (LIMC) |
Arrival
| Time | 2026-05-05 13:36 |
|---|---|
| Airport | Leipzig/Halle Airport (EDDP) |
| Time | Latitude | Longitude | Altitude | Speed | Heading |
|---|---|---|---|---|---|
| 2026-05-05 12:14 | 45.61957 | 8.71864 | 753 ft | 0 kts | 258° |
| 2026-05-05 12:18 | 45.61959 | 8.71878 | 752 ft | 3 kts | 260° |
| 2026-05-05 12:18 | 45.61962 | 8.71907 | 752 ft | 3 kts | 264° |
| 2026-05-05 12:18 | 45.61964 | 8.71935 | 753 ft | 3 kts | 268° |
| 2026-05-05 12:19 | 45.61964 | 8.71964 | 752 ft | 3 kts | 274° |
| 2026-05-05 12:19 | 45.61962 | 8.71992 | 752 ft | 3 kts | 286° |
| 2026-05-05 12:19 | 45.61954 | 8.72017 | 754 ft | 3 kts | 315° |
| 2026-05-05 12:19 | 45.61944 | 8.72028 | 752 ft | 1 kts | 347° |
| 2026-05-05 12:21 | 45.61945 | 8.72028 | 752 ft | 0 kts | 347° |
| 2026-05-05 12:21 | 45.61997 | 8.72012 | 753 ft | 15 kts | 348° |
| 2026-05-05 12:22 | 45.62096 | 8.71985 | 753 ft | 14 kts | 349° |
| 2026-05-05 12:22 | 45.62179 | 8.72029 | 753 ft | 15 kts | 68° |
| 2026-05-05 12:22 | 45.62201 | 8.72170 | 755 ft | 14 kts | 79° |
| 2026-05-05 12:22 | 45.62218 | 8.72312 | 754 ft | 15 kts | 81° |
| 2026-05-05 12:23 | 45.62239 | 8.72451 | 748 ft | 15 kts | 77° |
| 2026-05-05 12:23 | 45.62263 | 8.72591 | 751 ft | 14 kts | 80° |
| 2026-05-05 12:23 | 45.62283 | 8.72767 | 752 ft | 25 kts | 79° |
| 2026-05-05 12:23 | 45.62284 | 8.73010 | 753 ft | 27 kts | 140° |
| 2026-05-05 12:24 | 45.62081 | 8.73080 | 753 ft | 30 kts | 169° |
| 2026-05-05 12:24 | 45.61876 | 8.73135 | 755 ft | 30 kts | 168° |
| 2026-05-05 12:24 | 45.61706 | 8.73280 | 753 ft | 30 kts | 123° |
| 2026-05-05 12:24 | 45.61632 | 8.73438 | 754 ft | 0 kts | 125° |
| 2026-05-05 12:25 | 45.61605 | 8.73496 | 753 ft | 17 kts | 120° |
| 2026-05-05 12:26 | 45.61599 | 8.73684 | 746 ft | 22 kts | 59° |
| 2026-05-05 12:26 | 45.61707 | 8.73713 | 745 ft | 5 kts | 349° |
| 2026-05-05 12:26 | 45.61742 | 8.73703 | 748 ft | 5 kts | 349° |
| 2026-05-05 12:26 | 45.61747 | 8.73701 | 747 ft | 0 kts | 349° |
| 2026-05-05 12:27 | 45.61863 | 8.73669 | 748 ft | 48 kts | 348° |
| 2026-05-05 12:28 | 45.62549 | 8.73477 | 750 ft | 151 kts | 349° |
| 2026-05-05 12:28 | 45.63843 | 8.73141 | 993 ft | 212 kts | 349° |
| 2026-05-05 12:28 | 45.65319 | 8.72746 | 2034 ft | 220 kts | 353° |
| 2026-05-05 12:28 | 45.66849 | 8.73045 | 3054 ft | 225 kts | 33° |
| 2026-05-05 12:29 | 45.67859 | 8.74607 | 4134 ft | 210 kts | 72° |
| 2026-05-05 12:29 | 45.68117 | 8.76595 | 5067 ft | 202 kts | 85° |
| 2026-05-05 12:29 | 45.68613 | 8.78464 | 5716 ft | 214 kts | 52° |
| 2026-05-05 12:29 | 45.69744 | 8.79888 | 6432 ft | 220 kts | 43° |
| 2026-05-05 12:30 | 45.70932 | 8.81290 | 7174 ft | 224 kts | 43° |
| 2026-05-05 12:30 | 45.72089 | 8.82805 | 7834 ft | 227 kts | 57° |
| 2026-05-05 12:30 | 45.72643 | 8.84886 | 8405 ft | 228 kts | 92° |
| 2026-05-05 12:30 | 45.72237 | 8.87108 | 8821 ft | 238 kts | 126° |
| 2026-05-05 12:31 | 45.71252 | 8.89071 | 9365 ft | 249 kts | 129° |
| 2026-05-05 12:31 | 45.70218 | 8.91105 | 10158 ft | 255 kts | 130° |
| 2026-05-05 12:31 | 45.69185 | 8.93141 | 10948 ft | 258 kts | 130° |
| 2026-05-05 12:31 | 45.68121 | 8.95231 | 11782 ft | 261 kts | 131° |
| 2026-05-05 12:32 | 45.67043 | 8.97346 | 12579 ft | 265 kts | 131° |
| 2026-05-05 12:32 | 45.66089 | 8.99631 | 13223 ft | 278 kts | 110° |
| 2026-05-05 12:32 | 45.65972 | 9.02516 | 13510 ft | 312 kts | 79° |
| 2026-05-05 12:32 | 45.66933 | 9.05438 | 13772 ft | 343 kts | 52° |
| 2026-05-05 12:33 | 45.68741 | 9.07850 | 13966 ft | 371 kts | 32° |
| 2026-05-05 12:33 | 45.71153 | 9.09459 | 14191 ft | 395 kts | 16° |
| 2026-05-05 12:33 | 45.73869 | 9.10088 | 14499 ft | 408 kts | 356° |
| 2026-05-05 12:33 | 45.76723 | 9.09750 | 15228 ft | 415 kts | 349° |
| 2026-05-05 12:34 | 45.79599 | 9.09168 | 16089 ft | 420 kts | 348° |
| 2026-05-05 12:34 | 45.82516 | 9.08637 | 16981 ft | 425 kts | 350° |
| 2026-05-05 12:34 | 45.85474 | 9.08228 | 17846 ft | 430 kts | 352° |
| 2026-05-05 12:34 | 45.88480 | 9.07917 | 18596 ft | 437 kts | 353° |
| 2026-05-05 12:35 | 45.91540 | 9.07656 | 19286 ft | 443 kts | 354° |
| 2026-05-05 12:35 | 45.94632 | 9.07409 | 19980 ft | 448 kts | 354° |
| 2026-05-05 12:35 | 45.97712 | 9.07158 | 20658 ft | 453 kts | 354° |
| 2026-05-05 12:35 | 46.00869 | 9.06835 | 21312 ft | 457 kts | 352° |
| 2026-05-05 12:36 | 46.04047 | 9.06327 | 21955 ft | 461 kts | 350° |
| 2026-05-05 12:36 | 46.07246 | 9.05751 | 22677 ft | 466 kts | 350° |
| 2026-05-05 12:36 | 46.10486 | 9.05184 | 23373 ft | 471 kts | 351° |
| 2026-05-05 12:36 | 46.13763 | 9.04646 | 23957 ft | 477 kts | 351° |
| 2026-05-05 12:37 | 46.17077 | 9.04128 | 24494 ft | 481 kts | 351° |
| 2026-05-05 12:37 | 46.20372 | 9.03667 | 25082 ft | 484 kts | 352° |
| 2026-05-05 12:37 | 46.23738 | 9.03223 | 25680 ft | 487 kts | 352° |
| 2026-05-05 12:37 | 46.27123 | 9.02782 | 26254 ft | 490 kts | 352° |
| 2026-05-05 12:38 | 46.30533 | 9.02333 | 26828 ft | 494 kts | 352° |
| 2026-05-05 12:38 | 46.33975 | 9.01871 | 27357 ft | 498 kts | 351° |
| 2026-05-05 12:38 | 46.37441 | 9.01400 | 27882 ft | 502 kts | 351° |
| 2026-05-05 12:38 | 46.40933 | 9.00924 | 28373 ft | 506 kts | 351° |
| 2026-05-05 12:39 | 46.44403 | 9.00453 | 28872 ft | 509 kts | 351° |
| 2026-05-05 12:39 | 46.47940 | 8.99977 | 29315 ft | 513 kts | 351° |
| 2026-05-05 12:39 | 46.51503 | 8.99499 | 29761 ft | 516 kts | 351° |
| 2026-05-05 12:39 | 46.55079 | 8.99017 | 30276 ft | 516 kts | 351° |
| 2026-05-05 12:40 | 46.58654 | 8.98538 | 30818 ft | 515 kts | 351° |
| 2026-05-05 12:40 | 46.62222 | 8.98058 | 31301 ft | 514 kts | 351° |
| 2026-05-05 12:40 | 46.65789 | 8.97575 | 31718 ft | 515 kts | 351° |
| 2026-05-05 12:40 | 46.69360 | 8.97091 | 32162 ft | 515 kts | 351° |
| 2026-05-05 12:41 | 46.72924 | 8.96608 | 32601 ft | 515 kts | 351° |
| 2026-05-05 12:41 | 46.76448 | 8.96129 | 33114 ft | 515 kts | 351° |
| 2026-05-05 12:41 | 46.80012 | 8.95645 | 33562 ft | 514 kts | 351° |
| 2026-05-05 12:41 | 46.83574 | 8.95160 | 34022 ft | 513 kts | 351° |
| 2026-05-05 12:42 | 46.87119 | 8.94676 | 34475 ft | 510 kts | 351° |
| 2026-05-05 12:42 | 46.90649 | 8.94193 | 34875 ft | 509 kts | 351° |
| 2026-05-05 12:42 | 46.94176 | 8.93709 | 35254 ft | 509 kts | 351° |
| 2026-05-05 12:42 | 46.97702 | 8.93225 | 35627 ft | 508 kts | 351° |
| 2026-05-05 12:43 | 47.01178 | 8.92747 | 35924 ft | 508 kts | 351° |
| 2026-05-05 12:43 | 47.04753 | 8.92254 | 35909 ft | 512 kts | 352° |
| 2026-05-05 12:43 | 47.11770 | 8.91288 | 35887 ft | 506 kts | 352° |
| 2026-05-05 12:44 | 47.18753 | 8.90324 | 35878 ft | 504 kts | 352° |
| 2026-05-05 12:44 | 47.25731 | 8.89448 | 35889 ft | 505 kts | 356° |
| 2026-05-05 12:45 | 47.32766 | 8.90071 | 35887 ft | 508 kts | 7° |
| 2026-05-05 12:45 | 47.39646 | 8.92249 | 35887 ft | 510 kts | 12° |
| 2026-05-05 12:46 | 47.46548 | 8.94652 | 35888 ft | 510 kts | 12° |
| 2026-05-05 12:46 | 47.53463 | 8.97007 | 35884 ft | 510 kts | 12° |
| 2026-05-05 12:47 | 47.60355 | 8.99308 | 35875 ft | 511 kts | 12° |
| 2026-05-05 12:47 | 47.67280 | 9.01614 | 35874 ft | 511 kts | 12° |
| 2026-05-05 12:48 | 47.74206 | 9.03930 | 35866 ft | 510 kts | 12° |
| 2026-05-05 12:48 | 47.81115 | 9.06250 | 35863 ft | 509 kts | 12° |
| 2026-05-05 12:49 | 47.88015 | 9.08574 | 35872 ft | 508 kts | 12° |
| 2026-05-05 12:49 | 47.94871 | 9.10889 | 35863 ft | 509 kts | 12° |
| 2026-05-05 12:50 | 48.01777 | 9.13227 | 35859 ft | 509 kts | 12° |
| 2026-05-05 12:50 | 48.08675 | 9.15568 | 35874 ft | 509 kts | 13° |
| 2026-05-05 12:51 | 48.15583 | 9.17921 | 35856 ft | 509 kts | 13° |
| 2026-05-05 12:51 | 48.22376 | 9.20927 | 35863 ft | 509 kts | 18° |
| 2026-05-05 12:52 | 48.29045 | 9.24282 | 35865 ft | 510 kts | 19° |
| 2026-05-05 12:52 | 48.35787 | 9.27656 | 35853 ft | 511 kts | 18° |
| 2026-05-05 12:53 | 48.42539 | 9.30990 | 35853 ft | 510 kts | 18° |
| 2026-05-05 12:53 | 48.49245 | 9.34295 | 35847 ft | 511 kts | 18° |
| 2026-05-05 12:54 | 48.59363 | 9.39307 | 35849 ft | 510 kts | 18° |
| 2026-05-05 12:55 | 48.66095 | 9.42655 | 35858 ft | 509 kts | 18° |
| 2026-05-05 12:55 | 48.72698 | 9.46522 | 35847 ft | 509 kts | 27° |
| 2026-05-05 12:56 | 48.78708 | 9.52020 | 35844 ft | 508 kts | 36° |
| 2026-05-05 12:56 | 48.84464 | 9.58226 | 35837 ft | 507 kts | 37° |
| 2026-05-05 12:57 | 48.90214 | 9.64443 | 35833 ft | 507 kts | 37° |
| 2026-05-05 12:57 | 48.95978 | 9.70620 | 35811 ft | 507 kts | 36° |
| 2026-05-05 12:58 | 49.01714 | 9.76748 | 35833 ft | 507 kts | 36° |
| 2026-05-05 12:58 | 49.07493 | 9.82936 | 35831 ft | 508 kts | 36° |
| 2026-05-05 12:59 | 49.13278 | 9.89153 | 35837 ft | 509 kts | 36° |
| 2026-05-05 12:59 | 49.19065 | 9.95394 | 35827 ft | 510 kts | 36° |
| 2026-05-05 13:00 | 49.27707 | 10.04747 | 35820 ft | 506 kts | 37° |
| 2026-05-05 13:01 | 49.36059 | 10.13821 | 35815 ft | 478 kts | 37° |
| 2026-05-05 13:01 | 49.38743 | 10.16747 | 35807 ft | 469 kts | 37° |
| 2026-05-05 13:01 | 49.44053 | 10.22548 | 35830 ft | 468 kts | 37° |
| 2026-05-05 13:02 | 49.49327 | 10.28327 | 35827 ft | 469 kts | 37° |
| 2026-05-05 13:02 | 49.54639 | 10.34161 | 35792 ft | 470 kts | 37° |
| 2026-05-05 13:03 | 49.59956 | 10.40015 | 35789 ft | 470 kts | 36° |
| 2026-05-05 13:03 | 49.65275 | 10.45888 | 35804 ft | 470 kts | 36° |
| 2026-05-05 13:04 | 49.70597 | 10.51778 | 35811 ft | 471 kts | 36° |
| 2026-05-05 13:04 | 49.76003 | 10.57396 | 35820 ft | 471 kts | 28° |
| 2026-05-05 13:05 | 49.81836 | 10.62026 | 35810 ft | 471 kts | 26° |
| 2026-05-05 13:05 | 49.87697 | 10.66580 | 35814 ft | 471 kts | 26° |
| 2026-05-05 13:06 | 49.93492 | 10.71172 | 35816 ft | 471 kts | 26° |
| 2026-05-05 13:06 | 49.99304 | 10.75824 | 35817 ft | 470 kts | 26° |
| 2026-05-05 13:07 | 50.05111 | 10.80481 | 35812 ft | 469 kts | 26° |
| 2026-05-05 13:07 | 50.11009 | 10.84814 | 35813 ft | 468 kts | 21° |
| 2026-05-05 13:08 | 50.16985 | 10.88661 | 35828 ft | 468 kts | 20° |
| 2026-05-05 13:08 | 50.23002 | 10.92539 | 35825 ft | 468 kts | 21° |
| 2026-05-05 13:09 | 50.29017 | 10.96481 | 35830 ft | 469 kts | 21° |
| 2026-05-05 13:09 | 50.35029 | 11.00445 | 35806 ft | 468 kts | 21° |
| 2026-05-05 13:10 | 50.38000 | 11.02408 | 35235 ft | 460 kts | 21° |
| 2026-05-05 13:10 | 50.40979 | 11.04413 | 34142 ft | 475 kts | 22° |
| 2026-05-05 13:10 | 50.43994 | 11.06570 | 32837 ft | 491 kts | 23° |
| 2026-05-05 13:10 | 50.47133 | 11.08881 | 31611 ft | 504 kts | 24° |
| 2026-05-05 13:11 | 50.50315 | 11.11236 | 30772 ft | 506 kts | 24° |
| 2026-05-05 13:11 | 50.53499 | 11.13578 | 30069 ft | 505 kts | 24° |
| 2026-05-05 13:11 | 50.56675 | 11.15900 | 29419 ft | 501 kts | 24° |
| 2026-05-05 13:11 | 50.59818 | 11.18189 | 28874 ft | 494 kts | 24° |
| 2026-05-05 13:12 | 50.62918 | 11.20449 | 28338 ft | 488 kts | 24° |
| 2026-05-05 13:12 | 50.65981 | 11.22682 | 27781 ft | 483 kts | 24° |
| 2026-05-05 13:12 | 50.69016 | 11.24885 | 27210 ft | 478 kts | 24° |
| 2026-05-05 13:12 | 50.71987 | 11.27040 | 26651 ft | 474 kts | 24° |
| 2026-05-05 13:13 | 50.74969 | 11.29205 | 26104 ft | 470 kts | 24° |
| 2026-05-05 13:13 | 50.77922 | 11.31354 | 25560 ft | 466 kts | 24° |
| 2026-05-05 13:13 | 50.80854 | 11.33492 | 25038 ft | 461 kts | 24° |
| 2026-05-05 13:13 | 50.83752 | 11.35608 | 24577 ft | 457 kts | 24° |
| 2026-05-05 13:14 | 50.86619 | 11.37705 | 24084 ft | 453 kts | 24° |
| 2026-05-05 13:14 | 50.89468 | 11.39791 | 23602 ft | 449 kts | 24° |
| 2026-05-05 13:14 | 50.92297 | 11.41866 | 23039 ft | 446 kts | 24° |
| 2026-05-05 13:14 | 50.95103 | 11.43926 | 22493 ft | 443 kts | 24° |
| 2026-05-05 13:15 | 50.97847 | 11.45945 | 21965 ft | 439 kts | 24° |
| 2026-05-05 13:15 | 51.00608 | 11.47977 | 21430 ft | 436 kts | 24° |
| 2026-05-05 13:15 | 51.03344 | 11.49994 | 20914 ft | 433 kts | 24° |
| 2026-05-05 13:15 | 51.06067 | 11.52004 | 20388 ft | 430 kts | 24° |
| 2026-05-05 13:16 | 51.08763 | 11.54014 | 19886 ft | 423 kts | 26° |
| 2026-05-05 13:16 | 51.11163 | 11.56695 | 19184 ft | 425 kts | 46° |
| 2026-05-05 13:16 | 51.12883 | 11.60486 | 18610 ft | 420 kts | 63° |
| 2026-05-05 13:16 | 51.14181 | 11.64619 | 18087 ft | 417 kts | 65° |
| 2026-05-05 13:17 | 51.15477 | 11.68732 | 17517 ft | 415 kts | 64° |
| 2026-05-05 13:17 | 51.16771 | 11.72771 | 16930 ft | 413 kts | 64° |
| 2026-05-05 13:17 | 51.18137 | 11.76751 | 16423 ft | 408 kts | 63° |
| 2026-05-05 13:17 | 51.19390 | 11.80765 | 15925 ft | 401 kts | 69° |
| 2026-05-05 13:18 | 51.20223 | 11.84976 | 15462 ft | 395 kts | 80° |
| 2026-05-05 13:18 | 51.20518 | 11.89283 | 15026 ft | 388 kts | 92° |
| 2026-05-05 13:18 | 51.20235 | 11.93509 | 14693 ft | 378 kts | 105° |
| 2026-05-05 13:18 | 51.19373 | 11.97414 | 14226 ft | 372 kts | 118° |
| 2026-05-05 13:19 | 51.18093 | 12.00923 | 13927 ft | 361 kts | 129° |
| 2026-05-05 13:19 | 51.16374 | 12.03660 | 13883 ft | 354 kts | 146° |
| 2026-05-05 13:19 | 51.14267 | 12.05829 | 13910 ft | 366 kts | 152° |
| 2026-05-05 13:19 | 51.12040 | 12.07827 | 13904 ft | 369 kts | 154° |
| 2026-05-05 13:20 | 51.09791 | 12.09770 | 13894 ft | 367 kts | 154° |
| 2026-05-05 13:20 | 51.07547 | 12.11694 | 13894 ft | 365 kts | 154° |
| 2026-05-05 13:20 | 51.05317 | 12.13597 | 13896 ft | 364 kts | 154° |
| 2026-05-05 13:20 | 51.03086 | 12.15494 | 13893 ft | 363 kts | 154° |
| 2026-05-05 13:21 | 51.00865 | 12.17378 | 13885 ft | 362 kts | 154° |
| 2026-05-05 13:21 | 50.98672 | 12.19234 | 13902 ft | 362 kts | 154° |
| 2026-05-05 13:21 | 50.96542 | 12.21325 | 13881 ft | 364 kts | 140° |
| 2026-05-05 13:21 | 50.95031 | 12.24596 | 13913 ft | 377 kts | 115° |
| 2026-05-05 13:22 | 50.94514 | 12.28677 | 13872 ft | 384 kts | 91° |
| 2026-05-05 13:22 | 50.95032 | 12.32866 | 13322 ft | 395 kts | 68° |
| 2026-05-05 13:22 | 50.96434 | 12.36590 | 12867 ft | 392 kts | 52° |
| 2026-05-05 13:22 | 50.98256 | 12.39696 | 12938 ft | 382 kts | 41° |
| 2026-05-05 13:23 | 51.00436 | 12.42080 | 12957 ft | 379 kts | 30° |
| 2026-05-05 13:23 | 51.02735 | 12.44138 | 12950 ft | 379 kts | 28° |
| 2026-05-05 13:23 | 51.05030 | 12.46114 | 12596 ft | 382 kts | 28° |
| 2026-05-05 13:23 | 51.07364 | 12.48135 | 12126 ft | 382 kts | 28° |
| 2026-05-05 13:24 | 51.09665 | 12.50164 | 11860 ft | 371 kts | 29° |
| 2026-05-05 13:24 | 51.11869 | 12.52139 | 11760 ft | 356 kts | 29° |
| 2026-05-05 13:24 | 51.13987 | 12.54056 | 11668 ft | 343 kts | 29° |
| 2026-05-05 13:24 | 51.16010 | 12.55900 | 11560 ft | 326 kts | 29° |
| 2026-05-05 13:25 | 51.17918 | 12.57645 | 11067 ft | 309 kts | 29° |
| 2026-05-05 13:25 | 51.19764 | 12.59337 | 10313 ft | 304 kts | 29° |
| 2026-05-05 13:25 | 51.21582 | 12.61005 | 9602 ft | 309 kts | 29° |
| 2026-05-05 13:25 | 51.23441 | 12.62710 | 9249 ft | 306 kts | 29° |
| 2026-05-05 13:26 | 51.25262 | 12.64383 | 8999 ft | 299 kts | 29° |
| 2026-05-05 13:26 | 51.27039 | 12.66017 | 8796 ft | 290 kts | 29° |
| 2026-05-05 13:26 | 51.28747 | 12.67590 | 8675 ft | 278 kts | 29° |
| 2026-05-05 13:26 | 51.30368 | 12.69141 | 8471 ft | 265 kts | 37° |
| 2026-05-05 13:27 | 51.31512 | 12.71369 | 8082 ft | 260 kts | 69° |
| 2026-05-05 13:27 | 51.31900 | 12.74141 | 7742 ft | 254 kts | 88° |
| 2026-05-05 13:27 | 51.32009 | 12.76950 | 7357 ft | 253 kts | 88° |
| 2026-05-05 13:27 | 51.32121 | 12.79758 | 6952 ft | 254 kts | 87° |
| 2026-05-05 13:28 | 51.32329 | 12.82501 | 6990 ft | 257 kts | 72° |
| 2026-05-05 13:28 | 51.33354 | 12.84938 | 7078 ft | 280 kts | 38° |
| 2026-05-05 13:28 | 51.35117 | 12.86257 | 7083 ft | 283 kts | 7° |
| 2026-05-05 13:28 | 51.37066 | 12.86097 | 6761 ft | 277 kts | 339° |
| 2026-05-05 13:29 | 51.38588 | 12.84488 | 6455 ft | 253 kts | 306° |
| 2026-05-05 13:29 | 51.39273 | 12.82064 | 6223 ft | 235 kts | 283° |
| 2026-05-05 13:29 | 51.39658 | 12.79428 | 6000 ft | 254 kts | 282° |
| 2026-05-05 13:29 | 51.40056 | 12.76664 | 5695 ft | 259 kts | 282° |
| 2026-05-05 13:30 | 51.40450 | 12.73869 | 5384 ft | 256 kts | 282° |
| 2026-05-05 13:30 | 51.40836 | 12.71092 | 5105 ft | 255 kts | 282° |
| 2026-05-05 13:30 | 51.41215 | 12.68363 | 5002 ft | 252 kts | 282° |
| 2026-05-05 13:30 | 51.41602 | 12.65577 | 4732 ft | 258 kts | 282° |
| 2026-05-05 13:31 | 51.41986 | 12.62810 | 4686 ft | 251 kts | 282° |
| 2026-05-05 13:31 | 51.42357 | 12.60127 | 4696 ft | 242 kts | 282° |
| 2026-05-05 13:31 | 51.42698 | 12.57541 | 4609 ft | 231 kts | 278° |
| 2026-05-05 13:31 | 51.42774 | 12.55069 | 4501 ft | 213 kts | 268° |
| 2026-05-05 13:32 | 51.42689 | 12.52831 | 4334 ft | 190 kts | 266° |
| 2026-05-05 13:32 | 51.42590 | 12.50822 | 4047 ft | 177 kts | 266° |
| 2026-05-05 13:32 | 51.42498 | 12.48917 | 3727 ft | 166 kts | 267° |
| 2026-05-05 13:32 | 51.42414 | 12.47140 | 3357 ft | 154 kts | 267° |
| 2026-05-05 13:33 | 51.42335 | 12.45469 | 3027 ft | 153 kts | 267° |
| 2026-05-05 13:33 | 51.42253 | 12.43741 | 2964 ft | 158 kts | 267° |
| 2026-05-05 13:33 | 51.42150 | 12.41984 | 2646 ft | 156 kts | 267° |
| 2026-05-05 13:33 | 51.42073 | 12.40281 | 2306 ft | 151 kts | 270° |
| 2026-05-05 13:34 | 51.42025 | 12.38629 | 2010 ft | 147 kts | 270° |
| 2026-05-05 13:34 | 51.41950 | 12.36990 | 1874 ft | 148 kts | 268° |
| 2026-05-05 13:34 | 51.41879 | 12.35349 | 1738 ft | 152 kts | 268° |
| 2026-05-05 13:34 | 51.41786 | 12.33664 | 1531 ft | 151 kts | 268° |
| 2026-05-05 13:35 | 51.41703 | 12.31980 | 1211 ft | 150 kts | 269° |
| 2026-05-05 13:35 | 51.41612 | 12.30340 | 1042 ft | 149 kts | 269° |
| 2026-05-05 13:35 | 51.41546 | 12.28684 | 852 ft | 149 kts | 270° |
| 2026-05-05 13:35 | 51.41464 | 12.27046 | 699 ft | 147 kts | 270° |
| 2026-05-05 13:36 | 51.41391 | 12.25408 | 531 ft | 148 kts | 267° |
| 2026-05-05 13:36 | 51.41318 | 12.23834 | 471 ft | 132 kts | 266° |
| 2026-05-05 13:36 | 51.41262 | 12.22620 | 468 ft | 87 kts | 265° |
| 2026-05-05 13:36 | 51.41218 | 12.21922 | 462 ft | 42 kts | 251° |
| 2026-05-05 13:37 | 51.41142 | 12.21695 | 461 ft | 10 kts | 235° |
| 2026-05-05 13:37 | 51.41118 | 12.21658 | 461 ft | 5 kts | 208° |
| 2026-05-05 13:37 | 51.41085 | 12.21657 | 462 ft | 5 kts | 158° |
| 2026-05-05 13:37 | 51.41061 | 12.21697 | 464 ft | 5 kts | 121° |
| 2026-05-05 13:38 | 51.41052 | 12.21772 | 465 ft | 11 kts | 90° |
| 2026-05-05 13:38 | 51.41059 | 12.21947 | 463 ft | 18 kts | 85° |
| 2026-05-05 13:38 | 51.41065 | 12.22076 | 464 ft | 18 kts | 88° |
| 2026-05-05 13:38 | 51.41073 | 12.22271 | 464 ft | 18 kts | 85° |
| 2026-05-05 13:39 | 51.41089 | 12.22561 | 465 ft | 22 kts | 87° |
| 2026-05-05 13:39 | 51.41100 | 12.22809 | 469 ft | 22 kts | 86° |
| 2026-05-05 13:39 | 51.41109 | 12.23057 | 475 ft | 22 kts | 88° |
| 2026-05-05 13:39 | 51.41121 | 12.23304 | 475 ft | 22 kts | 85° |
| 2026-05-05 13:40 | 51.41134 | 12.23551 | 474 ft | 22 kts | 86° |
| 2026-05-05 13:40 | 51.41144 | 12.23715 | 472 ft | 22 kts | 82° |
| 2026-05-05 13:40 | 51.41153 | 12.23963 | 474 ft | 22 kts | 87° |
| 2026-05-05 13:40 | 51.41168 | 12.24262 | 471 ft | 16 kts | 86° |
| 2026-05-05 13:41 | 51.41175 | 12.24437 | 472 ft | 16 kts | 86° |
| 2026-05-05 13:41 | 51.41145 | 12.24571 | 474 ft | 10 kts | 161° |
| 2026-05-05 13:41 | 51.41099 | 12.24587 | 469 ft | 7 kts | 170° |
| 2026-05-05 13:41 | 51.41084 | 12.24592 | 473 ft | 3 kts | 170° |
| 2026-05-05 13:42 | 51.41064 | 12.24597 | 469 ft | 5 kts | 171° |
| 2026-05-05 13:42 | 51.41019 | 12.24625 | 473 ft | 9 kts | 146° |
| 2026-05-05 13:42 | 51.40974 | 12.24608 | 466 ft | 6 kts | 253° |
| 2026-05-05 13:42 | 51.40972 | 12.24552 | 467 ft | 3 kts | 266° |
| 2026-05-05 13:43 | 51.40971 | 12.24529 | 467 ft | 1 kts | 265° |
| 2026-05-05 13:43 | 51.40970 | 12.24514 | 469 ft | 4 kts | 264° |
| 2026-05-05 13:43 | 51.40969 | 12.24500 | 471 ft | 2 kts | 264° |
| 2026-05-05 13:43 | 51.40969 | 12.24493 | 469 ft | 0 kts | 265° |